sensor_id;sensor_type;location;lat;lon;timestamp;pressure;altitude;pressure_sealevel;temperature;humidity
74680;BME280;63211;48.548;2.704;2023-09-08T00:02:08;100842.91;;;24.78;60.70
74680;BME280;63211;48.548;2.704;2023-09-08T00:04:35;100835.22;;;24.80;60.52
74680;BME280;63211;48.548;2.704;2023-09-08T00:07:02;100837.97;;;24.80;60.69
74680;BME280;63211;48.548;2.704;2023-09-08T00:09:29;100833.81;;;24.78;60.62
74680;BME280;63211;48.548;2.704;2023-09-08T00:11:57;100837.66;;;24.77;61.04
74680;BME280;63211;48.548;2.704;2023-09-08T00:14:24;100835.75;;;24.77;60.81
74680;BME280;63211;48.548;2.704;2023-09-08T00:16:51;100834.66;;;24.78;60.39
74680;BME280;63211;48.548;2.704;2023-09-08T00:19:19;100816.13;;;24.63;60.65
74680;BME280;63211;48.548;2.704;2023-09-08T00:21:46;100829.69;;;24.75;60.57
74680;BME280;63211;48.548;2.704;2023-09-08T00:24:12;100831.88;;;24.73;60.55
74680;BME280;63211;48.548;2.704;2023-09-08T00:26:39;100837.41;;;24.73;60.83
74680;BME280;63211;48.548;2.704;2023-09-08T00:29:07;100835.19;;;24.75;60.51
74680;BME280;63211;48.548;2.704;2023-09-08T00:31:34;100833.53;;;24.74;60.62
74680;BME280;63211;48.548;2.704;2023-09-08T00:34:00;100839.59;;;24.71;60.92
74680;BME280;63211;48.548;2.704;2023-09-08T00:36:27;100834.34;;;24.70;60.92
74680;BME280;63211;48.548;2.704;2023-09-08T00:38:53;100832.94;;;24.67;60.89
74680;BME280;63211;48.548;2.704;2023-09-08T00:41:20;100836.25;;;24.69;60.95
74680;BME280;63211;48.548;2.704;2023-09-08T00:43:48;100826.88;;;24.65;60.90
74680;BME280;63211;48.548;2.704;2023-09-08T00:46:17;100833.19;;;24.65;60.56
74680;BME280;63211;48.548;2.704;2023-09-08T00:48:44;100834.28;;;24.64;61.15
74680;BME280;63211;48.548;2.704;2023-09-08T00:51:11;100826.88;;;24.65;61.00
74680;BME280;63211;48.548;2.704;2023-09-08T00:53:37;100827.13;;;24.63;61.09
74680;BME280;63211;48.548;2.704;2023-09-08T00:56:04;100830.72;;;24.64;61.28
74680;BME280;63211;48.548;2.704;2023-09-08T00:58:31;100829.63;;;24.65;60.80
74680;BME280;63211;48.548;2.704;2023-09-08T01:00:58;100836.22;;;24.64;60.87
74680;BME280;63211;48.548;2.704;2023-09-08T01:03:26;100826.03;;;24.64;60.84
74680;BME280;63211;48.548;2.704;2023-09-08T01:05:53;100829.31;;;24.61;60.67
74680;BME280;63211;48.548;2.704;2023-09-08T01:08:21;100829.88;;;24.63;60.80
74680;BME280;63211;48.548;2.704;2023-09-08T01:10:47;100831.22;;;24.61;60.91
74680;BME280;63211;48.548;2.704;2023-09-08T01:13:14;100835.09;;;24.60;60.89
74680;BME280;63211;48.548;2.704;2023-09-08T01:15:41;100824.06;;;24.60;60.65
74680;BME280;63211;48.548;2.704;2023-09-08T01:18:07;100828.19;;;24.57;60.90
74680;BME280;63211;48.548;2.704;2023-09-08T01:20:48;100835.88;;;24.55;60.64
74680;BME280;63211;48.548;2.704;2023-09-08T01:23:25;100825.94;;;24.54;61.21
74680;BME280;63211;48.548;2.704;2023-09-08T01:25:59;100825.94;;;24.54;60.77
74680;BME280;63211;48.548;2.704;2023-09-08T01:28:28;100835.59;;;24.52;61.27
74680;BME280;63211;48.548;2.704;2023-09-08T01:30:55;100830.09;;;24.52;61.03
74680;BME280;63211;48.548;2.704;2023-09-08T01:33:23;100823.44;;;24.48;61.05
74680;BME280;63211;48.548;2.704;2023-09-08T01:35:50;100826.50;;;24.51;60.95
74680;BME280;63211;48.548;2.704;2023-09-08T01:38:17;100838.59;;;24.50;61.26
74680;BME280;63211;48.548;2.704;2023-09-08T01:40:44;100832.25;;;24.50;61.19
74680;BME280;63211;48.548;2.704;2023-09-08T01:43:12;100830.88;;;24.47;61.30
74680;BME280;63211;48.548;2.704;2023-09-08T01:45:38;100836.94;;;24.49;61.11
74680;BME280;63211;48.548;2.704;2023-09-08T01:48:05;100834.19;;;24.49;60.83
74680;BME280;63211;48.548;2.704;2023-09-08T01:50:32;100836.63;;;24.46;61.33
74680;BME280;63211;48.548;2.704;2023-09-08T01:52:58;100833.88;;;24.46;61.18
74680;BME280;63211;48.548;2.704;2023-09-08T01:55:25;100830.56;;;24.44;61.10
74680;BME280;63211;48.548;2.704;2023-09-08T01:57:52;100836.06;;;24.44;61.32
74680;BME280;63211;48.548;2.704;2023-09-08T02:00:20;100841.56;;;24.44;61.18
74680;BME280;63211;48.548;2.704;2023-09-08T02:02:46;100841.25;;;24.40;61.40
74680;BME280;63211;48.548;2.704;2023-09-08T02:05:14;100796.75;;;24.21;60.76
74680;BME280;63211;48.548;2.704;2023-09-08T02:07:40;100847.91;;;24.44;61.08
74680;BME280;63211;48.548;2.704;2023-09-08T02:10:07;100836.06;;;24.44;61.15
74680;BME280;63211;48.548;2.704;2023-09-08T02:12:35;100850.91;;;24.43;61.13
74680;BME280;63211;48.548;2.704;2023-09-08T02:15:02;100839.34;;;24.41;61.42
74680;BME280;63211;48.548;2.704;2023-09-08T02:17:30;100848.69;;;24.40;61.27
74680;BME280;63211;48.548;2.704;2023-09-08T02:19:57;100848.69;;;24.40;61.11
74680;BME280;63211;48.548;2.704;2023-09-08T02:22:24;100842.59;;;24.38;61.50
74680;BME280;63211;48.548;2.704;2023-09-08T02:24:50;100855.78;;;24.36;61.54
74680;BME280;63211;48.548;2.704;2023-09-08T02:27:17;100847.53;;;24.36;61.36
74680;BME280;63211;48.548;2.704;2023-09-08T02:29:43;100837.88;;;24.33;61.53
74680;BME280;63211;48.548;2.704;2023-09-08T02:32:10;100842.03;;;24.36;61.24
74680;BME280;63211;48.548;2.704;2023-09-08T02:34:38;100848.63;;;24.35;61.29
74680;BME280;63211;48.548;2.704;2023-09-08T02:37:04;100849.19;;;24.31;61.23
74680;BME280;63211;48.548;2.704;2023-09-08T02:39:32;100847.22;;;24.32;61.18
74680;BME280;63211;48.548;2.704;2023-09-08T02:41:58;100844.47;;;24.32;61.54
74680;BME280;63211;48.548;2.704;2023-09-08T02:44:25;100844.78;;;24.30;61.69
74680;BME280;63211;48.548;2.704;2023-09-08T02:46:52;100851.34;;;24.29;61.33
74680;BME280;63211;48.548;2.704;2023-09-08T02:49:19;100851.88;;;24.26;61.71
74680;BME280;63211;48.548;2.704;2023-09-08T02:51:47;100843.69;;;24.31;61.52
74680;BME280;63211;48.548;2.704;2023-09-08T02:54:14;100843.38;;;24.28;61.51
74680;BME280;63211;48.548;2.704;2023-09-08T02:56:40;100846.94;;;24.28;61.39
74680;BME280;63211;48.548;2.704;2023-09-08T02:59:07;100838.69;;;24.28;61.39
74680;BME280;63211;48.548;2.704;2023-09-08T03:01:34;100843.09;;;24.29;61.73
74680;BME280;63211;48.548;2.704;2023-09-08T03:04:00;100838.13;;;24.26;61.29
74680;BME280;63211;48.548;2.704;2023-09-08T03:06:27;100841.44;;;24.28;61.52
74680;BME280;63211;48.548;2.704;2023-09-08T03:08:55;100840.03;;;24.26;61.34
74680;BME280;63211;48.548;2.704;2023-09-08T03:11:21;100843.28;;;24.23;61.55
74680;BME280;63211;48.548;2.704;2023-09-08T03:13:48;100841.97;;;24.25;61.65
74680;BME280;63211;48.548;2.704;2023-09-08T03:16:15;100840.03;;;24.26;61.42
74680;BME280;63211;48.548;2.704;2023-09-08T03:18:42;100842.44;;;24.22;61.36
74680;BME280;63211;48.548;2.704;2023-09-08T03:21:08;100843.88;;;24.25;61.21
74680;BME280;63211;48.548;2.704;2023-09-08T03:23:36;100850.69;;;24.22;61.76
74680;BME280;63211;48.548;2.704;2023-09-08T03:26:04;100842.41;;;24.17;61.60
74680;BME280;63211;48.548;2.704;2023-09-08T03:28:32;100831.63;;;24.11;61.93
74680;BME280;63211;48.548;2.704;2023-09-08T03:30:59;100837.47;;;24.19;61.67
74680;BME280;63211;48.548;2.704;2023-09-08T03:33:26;100834.13;;;24.17;61.58
74680;BME280;63211;48.548;2.704;2023-09-08T03:35:53;100831.97;;;24.19;61.67
74680;BME280;63211;48.548;2.704;2023-09-08T03:38:20;100838.56;;;24.18;61.53
74680;BME280;63211;48.548;2.704;2023-09-08T03:40:47;100831.38;;;24.17;61.45
74680;BME280;63211;48.548;2.704;2023-09-08T03:43:15;100836.13;;;24.22;61.21
74680;BME280;63211;48.548;2.704;2023-09-08T03:45:42;100836.47;;;24.25;61.27
74680;BME280;63211;48.548;2.704;2023-09-08T03:48:09;100836.72;;;24.24;61.34
74680;BME280;63211;48.548;2.704;2023-09-08T03:50:35;100830.97;;;24.25;61.46
74680;BME280;63211;48.548;2.704;2023-09-08T03:53:02;100838.44;;;24.30;61.20
74680;BME280;63211;48.548;2.704;2023-09-08T03:55:29;100839.22;;;24.25;61.30
74680;BME280;63211;48.548;2.704;2023-09-08T03:57:55;100827.81;;;24.17;61.59
74680;BME280;63211;48.548;2.704;2023-09-08T04:00:23;100832.22;;;24.18;61.77
74680;BME280;63211;48.548;2.704;2023-09-08T04:02:50;100830.81;;;24.15;61.79
74680;BME280;63211;48.548;2.704;2023-09-08T04:05:17;100832.47;;;24.16;61.70
74680;BME280;63211;48.548;2.704;2023-09-08T04:07:44;100830.03;;;24.20;62.02
74680;BME280;63211;48.548;2.704;2023-09-08T04:10:11;100833.63;;;24.20;62.13
74680;BME280;63211;48.548;2.704;2023-09-08T04:12:38;100832.78;;;24.20;61.92
74680;BME280;63211;48.548;2.704;2023-09-08T04:15:06;100778.53;;;23.83;62.21
74680;BME280;63211;48.548;2.704;2023-09-08T04:17:34;100836.63;;;24.19;62.41
74680;BME280;63211;48.548;2.704;2023-09-08T04:20:01;100839.38;;;24.19;62.15
74680;BME280;63211;48.548;2.704;2023-09-08T04:22:30;100838.56;;;24.18;61.97
74680;BME280;63211;48.548;2.704;2023-09-08T04:24:56;100852.56;;;24.17;61.92
74680;BME280;63211;48.548;2.704;2023-09-08T04:27:23;100852.88;;;24.20;61.89
74680;BME280;63211;48.548;2.704;2023-09-08T04:29:49;100853.41;;;24.17;62.15
74680;BME280;63211;48.548;2.704;2023-09-08T04:32:16;100851.78;;;24.21;61.73
74680;BME280;63211;48.548;2.704;2023-09-08T04:34:44;100851.47;;;24.18;61.84
74680;BME280;63211;48.548;2.704;2023-09-08T04:37:10;100857.81;;;24.18;61.74
74680;BME280;63211;48.548;2.704;2023-09-08T04:39:37;100860.56;;;24.18;61.90
74680;BME280;63211;48.548;2.704;2023-09-08T04:42:04;100859.47;;;24.19;61.64
74680;BME280;63211;48.548;2.704;2023-09-08T04:44:31;100857.25;;;24.16;61.57
74680;BME280;63211;48.548;2.704;2023-09-08T04:46:57;100858.31;;;24.15;61.93
74680;BME280;63211;48.548;2.704;2023-09-08T04:49:24;100851.69;;;24.11;61.90
74680;BME280;63211;48.548;2.704;2023-09-08T04:51:53;100857.47;;;24.10;61.67
74680;BME280;63211;48.548;2.704;2023-09-08T04:54:19;100856.38;;;24.11;61.95
74680;BME280;63211;48.548;2.704;2023-09-08T04:56:47;100853.63;;;24.11;61.80
74680;BME280;63211;48.548;2.704;2023-09-08T04:59:14;100848.38;;;24.09;61.60
74680;BME280;63211;48.548;2.704;2023-09-08T05:01:40;100854.97;;;24.08;61.63
74680;BME280;63211;48.548;2.704;2023-09-08T05:04:08;100861.56;;;24.07;61.93
74680;BME280;63211;48.548;2.704;2023-09-08T05:06:35;100866.56;;;24.10;62.07
74680;BME280;63211;48.548;2.704;2023-09-08T05:09:04;100867.59;;;24.04;62.12
74680;BME280;63211;48.548;2.704;2023-09-08T05:11:32;100866.19;;;24.02;61.84
74680;BME280;63211;48.548;2.704;2023-09-08T05:13:58;100866.19;;;24.02;61.64
74680;BME280;63211;48.548;2.704;2023-09-08T05:16:25;100865.91;;;24.03;61.89
74680;BME280;63211;48.548;2.704;2023-09-08T05:19:02;100865.34;;;24.01;61.85
74680;BME280;63211;48.548;2.704;2023-09-08T05:21:29;100855.38;;;23.95;61.95
74680;BME280;63211;48.548;2.704;2023-09-08T05:23:55;100863.88;;;23.93;61.18
74680;BME280;63211;48.548;2.704;2023-09-08T05:26:23;100868.53;;;23.88;60.09
74680;BME280;63211;48.548;2.704;2023-09-08T05:28:50;100855.16;;;23.75;60.24
74680;BME280;63211;48.548;2.704;2023-09-08T05:31:16;100868.97;;;23.80;59.58
74680;BME280;63211;48.548;2.704;2023-09-08T05:33:43;100868.06;;;23.74;59.68
74680;BME280;63211;48.548;2.704;2023-09-08T05:36:09;100870.56;;;23.76;59.58
74680;BME280;63211;48.548;2.704;2023-09-08T05:38:36;100866.38;;;23.68;60.12
74680;BME280;63211;48.548;2.704;2023-09-08T05:41:03;100867.75;;;23.71;60.00
74680;BME280;63211;48.548;2.704;2023-09-08T05:43:31;100873.22;;;23.66;60.01
74680;BME280;63211;48.548;2.704;2023-09-08T05:45:57;100872.16;;;23.72;59.72
74680;BME280;63211;48.548;2.704;2023-09-08T05:48:24;100872.13;;;23.67;59.65
74680;BME280;63211;48.548;2.704;2023-09-08T05:50:50;100863.03;;;23.66;59.31
74680;BME280;63211;48.548;2.704;2023-09-08T05:53:17;100873.97;;;23.61;59.65
74680;BME280;63211;48.548;2.704;2023-09-08T05:55:44;100870.38;;;23.60;59.62
74680;BME280;63211;48.548;2.704;2023-09-08T05:58:10;100880.28;;;23.61;59.25
74680;BME280;63211;48.548;2.704;2023-09-08T06:00:38;100883.31;;;23.60;59.38
74680;BME280;63211;48.548;2.704;2023-09-08T06:03:05;100880.13;;;23.68;59.39
74680;BME280;63211;48.548;2.704;2023-09-08T06:05:32;100878.19;;;23.69;59.41
74680;BME280;63211;48.548;2.704;2023-09-08T06:07:58;100865.16;;;23.59;59.14
74680;BME280;63211;48.548;2.704;2023-09-08T06:10:25;100879.28;;;23.68;59.43
74680;BME280;63211;48.548;2.704;2023-09-08T06:12:52;100871.31;;;23.71;59.35
74680;BME280;63211;48.548;2.704;2023-09-08T06:15:18;100871.06;;;23.73;58.68
74680;BME280;63211;48.548;2.704;2023-09-08T06:17:46;100872.72;;;23.74;58.84
74680;BME280;63211;48.548;2.704;2023-09-08T06:20:13;100873.81;;;23.73;59.06
74680;BME280;63211;48.548;2.704;2023-09-08T06:22:41;100881.88;;;23.79;59.48
74680;BME280;63211;48.548;2.704;2023-09-08T06:25:08;100881.03;;;23.79;59.39
74680;BME280;63211;48.548;2.704;2023-09-08T06:27:35;100884.13;;;23.82;59.68
74680;BME280;63211;48.548;2.704;2023-09-08T06:30:02;100871.19;;;23.83;59.97
74680;BME280;63211;48.548;2.704;2023-09-08T06:32:29;100871.47;;;23.81;59.81
74680;BME280;63211;48.548;2.704;2023-09-08T06:34:57;100872.94;;;23.89;59.85
74680;BME280;63211;48.548;2.704;2023-09-08T06:37:23;100877.63;;;23.93;59.61
74680;BME280;63211;48.548;2.704;2023-09-08T06:39:50;100881.28;;;23.99;60.21
74680;BME280;63211;48.548;2.704;2023-09-08T06:42:17;100873.28;;;23.97;60.08
74680;BME280;63211;48.548;2.704;2023-09-08T06:44:43;100872.56;;;24.07;59.97
74680;BME280;63211;48.548;2.704;2023-09-08T06:47:10;100876.41;;;24.06;60.08
74680;BME280;63211;48.548;2.704;2023-09-08T06:49:37;100875.56;;;24.06;60.23
74680;BME280;63211;48.548;2.704;2023-09-08T06:52:05;100877.50;;;24.05;60.04
74680;BME280;63211;48.548;2.704;2023-09-08T06:54:32;100873.66;;;24.06;60.43
74680;BME280;63211;48.548;2.704;2023-09-08T06:56:59;100869.94;;;23.95;60.35
74680;BME280;63211;48.548;2.704;2023-09-08T06:59:25;100884.41;;;24.08;60.02
74680;BME280;63211;48.548;2.704;2023-09-08T07:01:52;100876.97;;;24.08;60.10
74680;BME280;63211;48.548;2.704;2023-09-08T07:04:18;100864.50;;;24.01;59.92
74680;BME280;63211;48.548;2.704;2023-09-08T07:06:45;100881.91;;;24.06;60.18
74680;BME280;63211;48.548;2.704;2023-09-08T07:09:13;100880.25;;;24.05;60.35
74680;BME280;63211;48.548;2.704;2023-09-08T07:11:39;100879.66;;;24.03;60.36
74680;BME280;63211;48.548;2.704;2023-09-08T07:14:06;100876.28;;;23.96;60.49
74680;BME280;63211;48.548;2.704;2023-09-08T07:16:33;100877.44;;;24.00;60.30
74680;BME280;63211;48.548;2.704;2023-09-08T07:19:00;100888.44;;;24.00;60.39
74680;BME280;63211;48.548;2.704;2023-09-08T07:21:27;100889.28;;;24.01;60.68
74680;BME280;63211;48.548;2.704;2023-09-08T07:23:53;100883.78;;;24.01;60.48
74680;BME280;63211;48.548;2.704;2023-09-08T07:26:21;100893.44;;;24.03;60.54
74680;BME280;63211;48.548;2.704;2023-09-08T07:28:48;100894.78;;;24.01;60.32
74680;BME280;63211;48.548;2.704;2023-09-08T07:31:15;100890.94;;;24.02;60.63
74680;BME280;63211;48.548;2.704;2023-09-08T07:33:42;100890.94;;;24.02;60.34
74680;BME280;63211;48.548;2.704;2023-09-08T07:36:09;100897.78;;;23.99;60.45
74680;BME280;63211;48.548;2.704;2023-09-08T07:38:35;100894.78;;;24.01;60.33
74680;BME280;63211;48.548;2.704;2023-09-08T07:41:02;100885.13;;;23.98;60.29
74680;BME280;63211;48.548;2.704;2023-09-08T07:43:30;100896.19;;;24.03;60.52
74680;BME280;63211;48.548;2.704;2023-09-08T07:45:57;100887.66;;;24.05;60.23
74680;BME280;63211;48.548;2.704;2023-09-08T07:48:23;100884.91;;;24.05;60.46
74680;BME280;63211;48.548;2.704;2023-09-08T07:50:50;100889.00;;;24.02;60.80
74680;BME280;63211;48.548;2.704;2023-09-08T07:53:16;100895.91;;;24.05;60.34
74680;BME280;63211;48.548;2.704;2023-09-08T07:55:43;100890.94;;;24.02;60.71
74680;BME280;63211;48.548;2.704;2023-09-08T07:58:10;100896.75;;;24.05;60.33
74680;BME280;63211;48.548;2.704;2023-09-08T08:00:38;100895.41;;;24.08;60.30
74680;BME280;63211;48.548;2.704;2023-09-08T08:03:04;100897.06;;;24.09;60.32
74680;BME280;63211;48.548;2.704;2023-09-08T08:05:31;100895.44;;;24.13;60.60
74680;BME280;63211;48.548;2.704;2023-09-08T08:07:58;100900.69;;;24.14;59.96
74680;BME280;63211;48.548;2.704;2023-09-08T08:10:25;100896.66;;;24.22;59.87
74680;BME280;63211;48.548;2.704;2023-09-08T08:12:51;100895.81;;;24.21;60.05
74680;BME280;63211;48.548;2.704;2023-09-08T08:15:19;100900.31;;;24.27;59.79
74680;BME280;63211;48.548;2.704;2023-09-08T08:17:48;100903.91;;;24.28;59.64
74680;BME280;63211;48.548;2.704;2023-09-08T08:20:14;100908.81;;;24.26;60.06
74680;BME280;63211;48.548;2.704;2023-09-08T08:22:43;100905.00;;;24.27;60.17
74680;BME280;63211;48.548;2.704;2023-09-08T08:25:11;100911.50;;;24.21;60.01
74680;BME280;63211;48.548;2.704;2023-09-08T08:27:39;100910.75;;;24.25;60.36
74680;BME280;63211;48.548;2.704;2023-09-08T08:30:06;100912.97;;;24.28;60.25
74680;BME280;63211;48.548;2.704;2023-09-08T08:32:33;100923.19;;;24.33;60.08
74680;BME280;63211;48.548;2.704;2023-09-08T08:35:02;100917.44;;;24.35;60.21
74680;BME280;63211;48.548;2.704;2023-09-08T08:37:29;100918.84;;;24.37;60.17
74680;BME280;63211;48.548;2.704;2023-09-08T08:39:56;100922.72;;;24.41;59.92
74680;BME280;63211;48.548;2.704;2023-09-08T08:42:23;100927.16;;;24.42;60.06
74680;BME280;63211;48.548;2.704;2023-09-08T08:44:49;100917.81;;;24.43;60.00
74680;BME280;63211;48.548;2.704;2023-09-08T08:47:16;100879.03;;;24.23;60.07
74680;BME280;63211;48.548;2.704;2023-09-08T08:49:46;100914.84;;;24.50;59.98
74680;BME280;63211;48.548;2.704;2023-09-08T08:52:16;100916.50;;;24.51;59.93
74680;BME280;63211;48.548;2.704;2023-09-08T08:54:44;100914.00;;;24.49;60.17
74680;BME280;63211;48.548;2.704;2023-09-08T08:57:12;100910.75;;;24.52;60.00
74680;BME280;63211;48.548;2.704;2023-09-08T08:59:39;100906.31;;;24.51;59.56
74680;BME280;63211;48.548;2.704;2023-09-08T09:02:07;100902.47;;;24.52;59.82
74680;BME280;63211;48.548;2.704;2023-09-08T09:04:36;100917.66;;;24.60;59.53
74680;BME280;63211;48.548;2.704;2023-09-08T09:07:03;100910.25;;;24.60;59.69
74680;BME280;63211;48.548;2.704;2023-09-08T09:09:33;100863.22;;;24.35;59.74
74680;BME280;63211;48.548;2.704;2023-09-08T09:12:00;100911.06;;;24.61;59.83
74680;BME280;63211;48.548;2.704;2023-09-08T09:14:28;100912.16;;;24.60;59.61
74680;BME280;63211;48.548;2.704;2023-09-08T09:16:56;100917.16;;;24.63;59.78
74680;BME280;63211;48.548;2.704;2023-09-08T09:19:23;100881.50;;;24.46;59.88
74680;BME280;63211;48.548;2.704;2023-09-08T09:21:53;100916.06;;;24.64;59.95
74680;BME280;63211;48.548;2.704;2023-09-08T09:24:29;100909.47;;;24.65;59.79
74680;BME280;63211;48.548;2.704;2023-09-08T09:26:57;100909.19;;;24.66;59.71
74680;BME280;63211;48.548;2.704;2023-09-08T09:29:24;100911.13;;;24.66;59.76
74680;BME280;63211;48.548;2.704;2023-09-08T09:31:51;100903.38;;;24.63;60.03
74680;BME280;63211;48.548;2.704;2023-09-08T09:34:19;100907.03;;;24.69;59.90
74680;BME280;63211;48.548;2.704;2023-09-08T09:36:47;100908.69;;;24.70;59.76
74680;BME280;63211;48.548;2.704;2023-09-08T09:39:17;100910.34;;;24.71;59.86
74680;BME280;63211;48.548;2.704;2023-09-08T09:41:44;100905.41;;;24.73;59.64
74680;BME280;63211;48.548;2.704;2023-09-08T09:44:12;100907.31;;;24.72;59.48
74680;BME280;63211;48.548;2.704;2023-09-08T09:46:43;100912.84;;;24.72;59.82
74680;BME280;63211;48.548;2.704;2023-09-08T09:49:10;100907.31;;;24.72;59.71
74680;BME280;63211;48.548;2.704;2023-09-08T09:51:40;100909.00;;;24.73;59.72
74680;BME280;63211;48.548;2.704;2023-09-08T09:54:08;100910.91;;;24.73;59.93
74680;BME280;63211;48.548;2.704;2023-09-08T09:56:37;100903.16;;;24.70;60.04
74680;BME280;63211;48.548;2.704;2023-09-08T09:59:04;100893.19;;;24.63;59.92
74680;BME280;63211;48.548;2.704;2023-09-08T10:01:32;100905.94;;;24.75;59.66
74680;BME280;63211;48.548;2.704;2023-09-08T10:03:59;100897.66;;;24.70;60.00
74680;BME280;63211;48.548;2.704;2023-09-08T10:06:28;100913.38;;;24.74;59.98
74680;BME280;63211;48.548;2.704;2023-09-08T10:08:58;100904.03;;;24.75;59.86
74680;BME280;63211;48.548;2.704;2023-09-08T10:11:28;100904.84;;;24.76;59.94
74680;BME280;63211;48.548;2.704;2023-09-08T10:13:58;100910.09;;;24.77;59.88
74680;BME280;63211;48.548;2.704;2023-09-08T10:16:27;100909.28;;;24.77;59.89
74680;BME280;63211;48.548;2.704;2023-09-08T10:18:57;100908.44;;;24.76;59.93
74680;BME280;63211;48.548;2.704;2023-09-08T10:21:24;100910.34;;;24.76;59.93
74680;BME280;63211;48.548;2.704;2023-09-08T10:23:57;100900.16;;;24.71;60.04
74680;BME280;63211;48.548;2.704;2023-09-08T10:26:26;100903.19;;;24.75;59.78
74680;BME280;63211;48.548;2.704;2023-09-08T10:28:54;100907.88;;;24.74;59.94
74680;BME280;63211;48.548;2.704;2023-09-08T10:31:23;100902.09;;;24.76;59.99
74680;BME280;63211;48.548;2.704;2023-09-08T10:33:52;100911.19;;;24.76;60.22
74680;BME280;63211;48.548;2.704;2023-09-08T10:36:21;100913.94;;;24.76;60.02
74680;BME280;63211;48.548;2.704;2023-09-08T10:38:48;100909.53;;;24.75;59.96
74680;BME280;63211;48.548;2.704;2023-09-08T10:41:27;100904.84;;;24.76;59.84
74680;BME280;63211;48.548;2.704;2023-09-08T10:43:58;100899.34;;;24.76;60.22
74680;BME280;63211;48.548;2.704;2023-09-08T10:46:27;100886.91;;;24.68;60.15
74680;BME280;63211;48.548;2.704;2023-09-08T10:48:55;100896.31;;;24.72;60.28
74680;BME280;63211;48.548;2.704;2023-09-08T10:51:28;100901.25;;;24.75;60.17
74680;BME280;63211;48.548;2.704;2023-09-08T10:53:55;100886.41;;;24.76;60.10
74680;BME280;63211;48.548;2.704;2023-09-08T10:56:26;100874.75;;;24.64;60.42
74680;BME280;63211;48.548;2.704;2023-09-08T10:58:54;100893.00;;;24.75;60.23
74680;BME280;63211;48.548;2.704;2023-09-08T11:01:21;100888.31;;;24.76;60.31
74680;BME280;63211;48.548;2.704;2023-09-08T11:03:51;100893.84;;;24.76;60.30
74680;BME280;63211;48.548;2.704;2023-09-08T11:06:19;100886.41;;;24.76;60.08
74680;BME280;63211;48.548;2.704;2023-09-08T11:08:49;100890.25;;;24.75;60.43
74680;BME280;63211;48.548;2.704;2023-09-08T11:11:18;100886.41;;;24.76;60.37
74680;BME280;63211;48.548;2.704;2023-09-08T11:13:45;100893.00;;;24.75;60.31
74680;BME280;63211;48.548;2.704;2023-09-08T11:16:13;100888.31;;;24.76;60.56
74680;BME280;63211;48.548;2.704;2023-09-08T11:18:40;100877.56;;;24.69;60.50
74680;BME280;63211;48.548;2.704;2023-09-08T11:21:08;100879.47;;;24.69;60.67
74680;BME280;63211;48.548;2.704;2023-09-08T11:23:35;100875.28;;;24.61;60.62
74680;BME280;63211;48.548;2.704;2023-09-08T11:26:04;100875.91;;;24.68;60.69
74680;BME280;63211;48.548;2.704;2023-09-08T11:28:31;100879.78;;;24.72;60.38
74680;BME280;63211;48.548;2.704;2023-09-08T11:30:58;100883.91;;;24.75;60.36
74680;BME280;63211;48.548;2.704;2023-09-08T11:33:25;100880.91;;;24.76;60.71
74680;BME280;63211;48.548;2.704;2023-09-08T11:35:52;100878.97;;;24.77;60.61
74680;BME280;63211;48.548;2.704;2023-09-08T11:38:22;100882.56;;;24.77;60.39
74680;BME280;63211;48.548;2.704;2023-09-08T11:40:50;100866.28;;;24.71;60.58
74680;BME280;63211;48.548;2.704;2023-09-08T11:43:18;100877.06;;;24.77;60.29
74680;BME280;63211;48.548;2.704;2023-09-08T11:45:45;100872.38;;;24.78;60.66
74680;BME280;63211;48.548;2.704;2023-09-08T11:48:13;100874.31;;;24.77;60.45
74680;BME280;63211;48.548;2.704;2023-09-08T11:50:41;100872.13;;;24.79;60.36
74680;BME280;63211;48.548;2.704;2023-09-08T11:53:08;100874.59;;;24.81;60.31
74680;BME280;63211;48.548;2.704;2023-09-08T11:55:35;100867.44;;;24.80;60.30
74680;BME280;63211;48.548;2.704;2023-09-08T11:58:02;100867.97;;;24.77;60.61
74680;BME280;63211;48.548;2.704;2023-09-08T12:00:31;100866.84;;;24.73;60.71
74680;BME280;63211;48.548;2.704;2023-09-08T12:03:09;100868.78;;;24.72;60.52
74680;BME280;63211;48.548;2.704;2023-09-08T12:05:37;100851.91;;;24.63;60.45
74680;BME280;63211;48.548;2.704;2023-09-08T12:08:05;100867.63;;;24.68;60.51
74680;BME280;63211;48.548;2.704;2023-09-08T12:10:38;100861.88;;;24.70;60.25
74680;BME280;63211;48.548;2.704;2023-09-08T12:13:04;100864.38;;;24.71;60.46
74680;BME280;63211;48.548;2.704;2023-09-08T12:15:33;100864.63;;;24.70;60.75
74680;BME280;63211;48.548;2.704;2023-09-08T12:18:01;100866.03;;;24.72;60.37
74680;BME280;63211;48.548;2.704;2023-09-08T12:20:28;100836.16;;;24.59;60.52
74680;BME280;63211;48.548;2.704;2023-09-08T12:22:57;100859.94;;;24.70;60.25
74680;BME280;63211;48.548;2.704;2023-09-08T12:25:24;100863.28;;;24.72;60.29
74680;BME280;63211;48.548;2.704;2023-09-08T12:27:54;100851.38;;;24.66;60.50
74680;BME280;63211;48.548;2.704;2023-09-08T12:30:22;100850.59;;;24.71;60.28
74680;BME280;63211;48.548;2.704;2023-09-08T12:32:57;100844.47;;;24.64;60.38
74680;BME280;63211;48.548;2.704;2023-09-08T12:35:25;100843.38;;;24.65;60.54
74680;BME280;63211;48.548;2.704;2023-09-08T12:37:53;100846.44;;;24.69;60.49
74680;BME280;63211;48.548;2.704;2023-09-08T12:40:22;100844.53;;;24.69;60.44
74680;BME280;63211;48.548;2.704;2023-09-08T12:42:49;100849.19;;;24.69;60.45
74680;BME280;63211;48.548;2.704;2023-09-08T12:45:15;100846.72;;;24.67;60.27
74680;BME280;63211;48.548;2.704;2023-09-08T12:47:42;100848.38;;;24.68;60.64
74680;BME280;63211;48.548;2.704;2023-09-08T12:50:11;100838.44;;;24.67;60.27
74680;BME280;63211;48.548;2.704;2023-09-08T12:52:38;100832.63;;;24.63;60.57